Time;durP1;ratioP1;P1;durP2;ratioP2;P2;SDS_P1;SDS_P2;PMS_P1;PMS_P2;Temp;Humidity;BMP_temperature;BMP_pressure;BME280_temperature;BME280_humidity;BME280_pressure;Samples;Min_cycle;Max_cycle;Signal;HPM_P1;HPM_P2
2022/06/12 00:00:35;;;;;;;18.38;3.92;;;19.30;96.30;;;;;;5100150;28;45026;-73
2022/06/12 00:03:06;;;;;;;12.43;3.10;;;19.30;96.30;;;;;;5102366;28;46656;-73
2022/06/12 00:05:36;;;;;;;12.02;3.55;;;19.30;96.50;;;;;;5100507;28;44771;-73
2022/06/12 00:08:05;;;;;;;10.98;3.38;;;19.30;96.70;;;;;;5101232;28;44743;-73
2022/06/12 00:10:32;;;;;;;12.95;3.40;;;19.20;96.90;;;;;;5101566;27;44981;-73
2022/06/12 00:12:59;;;;;;;13.45;3.50;;;19.20;97.00;;;;;;5103945;28;46572;-73
2022/06/12 00:15:29;;;;;;;12.05;3.20;;;19.20;96.60;;;;;;5101343;28;44579;-73
2022/06/12 00:17:56;;;;;;;10.55;2.97;;;19.10;96.90;;;;;;5100883;28;46047;-73
2022/06/12 00:20:25;;;;;;;14.00;3.10;;;19.10;97.30;;;;;;5098848;28;44925;-73
2022/06/12 00:22:53;;;;;;;11.95;3.25;;;19.10;97.20;;;;;;5102750;28;46379;-73
2022/06/12 00:25:22;;;;;;;10.88;3.05;;;19.00;96.50;;;;;;5097655;28;44716;-73
2022/06/12 00:27:49;;;;;;;11.65;3.25;;;19.00;96.50;;;;;;5100918;28;44769;-73
2022/06/12 00:30:20;;;;;;;12.20;3.72;;;19.00;96.90;;;;;;5100493;28;44926;-73
2022/06/12 00:32:52;;;;;;;12.68;3.13;;;19.00;96.90;;;;;;5101779;28;45227;-73
2022/06/12 00:35:20;;;;;;;13.15;3.25;;;19.00;96.70;;;;;;5099155;28;44767;-73
2022/06/12 00:37:48;;;;;;;11.85;3.42;;;18.90;97.00;;;;;;5103072;28;44679;-73
2022/06/12 00:40:16;;;;;;;12.65;3.25;;;18.90;97.00;;;;;;5099305;28;44808;-73
2022/06/12 00:42:48;;;;;;;18.00;3.67;;;18.90;97.00;;;;;;5099819;28;45182;-73
2022/06/12 00:45:34;;;;;;;14.38;3.33;;;18.80;97.20;;;;;;5100772;28;44773;-73
2022/06/12 00:48:05;;;;;;;10.07;2.97;;;18.80;96.80;;;;;;5099595;28;44920;-73
2022/06/12 00:50:33;;;;;;;15.75;3.47;;;18.90;97.30;;;;;;5097889;28;44684;-73
2022/06/12 00:53:01;;;;;;;12.68;3.90;;;18.90;97.00;;;;;;5098360;28;46605;-73
2022/06/12 00:55:34;;;;;;;12.55;2.97;;;18.80;97.10;;;;;;5101997;28;46242;-73
2022/06/12 00:58:07;;;;;;;14.77;2.83;;;18.70;97.60;;;;;;5100170;28;45116;-73
2022/06/12 01:00:35;;;;;;;15.95;3.22;;;18.70;97.40;;;;;;5104627;28;44747;-73
2022/06/12 01:03:02;;;;;;;12.93;3.35;;;18.70;97.30;;;;;;5098634;28;46587;-73
2022/06/12 01:08:17;;;;;;;11.43;3.03;;;18.70;96.90;;;;;;5098332;28;44723;-73
2022/06/12 01:10:47;;;;;;;14.30;3.30;;;18.70;97.00;;;;;;5101478;28;44815;-73
2022/06/12 01:13:17;;;;;;;9.70;3.03;;;18.70;96.90;;;;;;5104104;28;46587;-73
2022/06/12 01:15:48;;;;;;;17.23;3.30;;;18.70;96.80;;;;;;5095540;28;44746;-72
2022/06/12 01:18:18;;;;;;;16.08;3.65;;;18.70;97.00;;;;;;5097821;28;44751;-72
2022/06/12 01:20:54;;;;;;;11.43;3.20;;;18.80;96.90;;;;;;5108414;28;44956;-72
2022/06/12 01:23:53;;;;;;;11.82;2.58;;;18.90;96.60;;;;;;5098036;28;47067;-72
2022/06/12 01:26:54;;;;;;;10.90;3.10;;;18.90;96.60;;;;;;5098963;28;45037;-72
2022/06/12 01:29:29;;;;;;;14.73;3.30;;;18.90;96.40;;;;;;5036819;28;45232;-73
2022/06/12 01:32:02;;;;;;;7.32;2.53;;;18.90;96.50;;;;;;5100365;28;44837;-72
2022/06/12 01:34:37;;;;;;;8.32;2.67;;;18.90;96.80;;;;;;5105910;28;47080;-72
2022/06/12 01:37:21;;;;;;;15.70;2.78;;;18.90;96.70;;;;;;5104431;28;44763;-72
2022/06/12 01:39:58;;;;;;;7.22;2.58;;;18.80;96.10;;;;;;5096967;28;44679;-72
2022/06/12 01:42:31;;;;;;;10.55;2.20;;;18.80;96.70;;;;;;5099507;28;45074;-72
2022/06/12 01:45:13;;;;;;;12.80;2.97;;;18.80;96.90;;;;;;5097926;28;47384;-72
2022/06/12 01:47:50;;;;;;;12.13;3.03;;;18.80;96.90;;;;;;5098523;27;45339;-72
2022/06/12 01:50:23;;;;;;;12.30;2.90;;;18.80;97.10;;;;;;5116200;27;45539;-72
2022/06/12 01:53:00;;;;;;;13.10;2.58;;;18.80;96.80;;;;;;5106573;28;45627;-72
2022/06/12 01:55:36;;;;;;;12.30;2.83;;;18.70;96.70;;;;;;5092362;28;46371;-72
2022/06/12 01:58:10;;;;;;;13.18;2.97;;;18.60;96.40;;;;;;5098981;28;44732;-72
2022/06/12 02:00:41;;;;;;;14.52;3.17;;;18.60;97.00;;;;;;5091858;28;45157;-72
2022/06/12 02:03:16;;;;;;;11.55;2.53;;;18.50;97.00;;;;;;5096858;28;45117;-72
2022/06/12 02:05:49;;;;;;;11.82;2.65;;;18.50;96.80;;;;;;5092224;28;47376;-72
2022/06/12 02:08:21;;;;;;;11.80;2.92;;;18.50;97.00;;;;;;5100051;28;44725;-72
2022/06/12 02:10:53;;;;;;;13.57;2.50;;;18.40;97.00;;;;;;5095150;28;45169;-72
2022/06/12 02:13:23;;;;;;;9.68;2.42;;;18.50;97.10;;;;;;5099337;28;44939;-72
2022/06/12 02:15:57;;;;;;;8.57;2.70;;;18.50;97.00;;;;;;5102997;28;45420;-72
2022/06/12 02:18:31;;;;;;;11.20;3.05;;;18.50;96.90;;;;;;5099790;28;44918;-72
2022/06/12 02:21:04;;;;;;;8.10;2.38;;;18.50;96.90;;;;;;5105257;28;44688;-72
2022/06/12 02:23:38;;;;;;;11.75;3.03;;;18.50;96.80;;;;;;5106157;27;45121;-72
2022/06/12 02:26:06;;;;;;;11.98;2.90;;;18.40;96.80;;;;;;5114857;27;45256;-72
2022/06/12 02:28:43;;;;;;;7.03;2.45;;;18.40;96.60;;;;;;5118449;27;44884;-72
2022/06/12 02:31:16;;;;;;;10.73;2.60;;;18.40;96.50;;;;;;5095796;28;44949;-72
2022/06/12 02:33:47;;;;;;;7.43;2.47;;;18.30;96.70;;;;;;5098027;27;44742;-72
2022/06/12 02:36:17;;;;;;;12.52;2.60;;;18.30;97.00;;;;;;5116849;27;45146;-72
2022/06/12 02:38:48;;;;;;;12.63;2.95;;;18.30;96.90;;;;;;5117858;27;44947;-72
2022/06/12 02:41:20;;;;;;;10.40;2.28;;;18.30;96.90;;;;;;5121346;27;46078;-72
2022/06/12 02:43:49;;;;;;;12.65;2.72;;;18.30;96.80;;;;;;5102514;27;44730;-72
2022/06/12 02:46:23;;;;;;;10.02;2.60;;;18.30;96.40;;;;;;5110050;27;44988;-72
2022/06/12 02:48:50;;;;;;;12.93;2.78;;;18.30;96.70;;;;;;5109594;27;45299;-72
2022/06/12 02:51:26;;;;;;;9.15;2.50;;;18.30;95.80;;;;;;5107591;27;44893;-72
2022/06/12 02:54:01;;;;;;;6.90;2.20;;;18.20;96.30;;;;;;5106941;27;44845;-72
2022/06/12 02:56:38;;;;;;;11.23;2.33;;;18.20;96.60;;;;;;5107636;27;45915;-72
2022/06/12 02:59:16;;;;;;;10.00;2.22;;;18.20;97.00;;;;;;5118429;27;44542;-72
2022/06/12 03:01:52;;;;;;;8.15;2.53;;;18.20;96.70;;;;;;5093076;28;44969;-72
2022/06/12 03:04:24;;;;;;;10.00;2.90;;;18.20;96.10;;;;;;5094163;28;44815;-72
2022/06/12 03:06:53;;;;;;;9.95;2.70;;;18.20;96.70;;;;;;5096109;28;45139;-72
2022/06/12 03:09:20;;;;;;;8.48;2.13;;;18.20;96.80;;;;;;5095954;28;45484;-72
2022/06/12 03:11:48;;;;;;;9.85;2.17;;;18.00;96.80;;;;;;5091475;28;45027;-72
2022/06/12 03:14:20;;;;;;;8.77;2.70;;;18.00;96.90;;;;;;5091867;28;44854;-72
2022/06/12 03:16:49;;;;;;;14.68;2.88;;;17.90;97.00;;;;;;5095077;28;47360;-72
2022/06/12 03:19:20;;;;;;;10.57;2.60;;;18.00;96.90;;;;;;5092469;28;44695;-72
2022/06/12 03:21:58;;;;;;;11.63;2.88;;;18.10;96.70;;;;;;5096411;28;45068;-72
2022/06/12 03:24:36;;;;;;;15.27;3.30;;;18.10;96.60;;;;;;5097635;28;44854;-72
2022/06/12 03:27:26;;;;;;;16.40;2.83;;;18.10;96.30;;;;;;5100081;28;47886;-72
2022/06/12 03:30:04;;;;;;;10.30;2.95;;;18.10;96.40;;;;;;5098445;28;44825;-72
2022/06/12 03:32:38;;;;;;;16.02;3.15;;;18.20;96.00;;;;;;5100102;28;44793;-72
2022/06/12 03:35:17;;;;;;;12.32;2.60;;;18.20;96.00;;;;;;5106255;28;44740;-72
2022/06/12 03:37:50;;;;;;;9.30;2.50;;;18.20;96.10;;;;;;5102084;28;46354;-72
2022/06/12 03:40:24;;;;;;;8.98;2.50;;;18.20;95.60;;;;;;5095388;28;44666;-72
2022/06/12 03:42:57;;;;;;;8.55;2.78;;;18.30;95.30;;;;;;5093513;28;44821;-72
2022/06/12 03:45:28;;;;;;;10.50;2.58;;;18.30;95.40;;;;;;5089480;28;45993;-72
2022/06/12 03:48:06;;;;;;;10.27;2.40;;;18.30;95.70;;;;;;5099446;28;45174;-72
2022/06/12 03:50:41;;;;;;;8.38;2.60;;;18.30;95.10;;;;;;5100136;28;44802;-72
2022/06/12 03:53:15;;;;;;;8.55;2.28;;;18.30;95.50;;;;;;5098378;28;44686;-72
2022/06/12 03:58:44;;;;;;;9.18;2.40;;;18.20;95.20;;;;;;5098312;28;44935;-72
2022/06/12 04:01:11;;;;;;;6.72;2.13;;;18.20;94.60;;;;;;5103389;28;45115;-72
2022/06/12 04:03:44;;;;;;;7.68;2.47;;;18.20;94.20;;;;;;5094538;28;44793;-72
2022/06/12 04:06:16;;;;;;;13.02;2.42;;;18.20;94.30;;;;;;5099775;28;44727;-72
2022/06/12 04:08:47;;;;;;;9.27;2.28;;;18.20;94.30;;;;;;5097113;28;45256;-72
2022/06/12 04:11:17;;;;;;;12.45;3.22;;;18.10;94.10;;;;;;5094922;28;44996;-72
2022/06/12 04:13:46;;;;;;;7.57;2.47;;;18.10;94.40;;;;;;5094014;28;44986;-72
2022/06/12 04:16:24;;;;;;;11.02;2.58;;;18.10;95.00;;;;;;5097474;22;45578;-72
2022/06/12 04:18:53;;;;;;;10.70;2.67;;;18.20;95.00;;;;;;5075128;28;47125;-72
2022/06/12 04:21:26;;;;;;;8.95;2.60;;;18.20;95.00;;;;;;5074935;28;45329;-72
2022/06/12 04:24:03;;;;;;;9.02;2.10;;;18.20;94.30;;;;;;5078752;27;45174;-72
2022/06/12 04:26:36;;;;;;;11.57;2.60;;;18.20;94.70;;;;;;5089587;27;45988;-72
2022/06/12 04:29:06;;;;;;;12.23;2.22;;;18.20;94.40;;;;;;5084227;27;46216;-72
2022/06/12 04:31:34;;;;;;;12.73;3.45;;;18.20;94.30;;;;;;5076564;28;45353;-72
2022/06/12 04:34:13;;;;;;;8.75;2.28;;;18.20;94.80;;;;;;5079549;28;45319;-72
2022/06/12 04:36:40;;;;;;;8.93;2.15;;;18.20;95.30;;;;;;5085703;28;46154;-72
2022/06/12 04:39:08;;;;;;;11.90;2.83;;;18.20;95.10;;;;;;5069974;28;45482;-72
2022/06/12 04:41:37;;;;;;;12.35;2.20;;;18.20;95.30;;;;;;5075878;28;45395;-72
2022/06/12 04:44:04;;;;;;;15.55;3.00;;;18.30;95.00;;;;;;5070321;28;45282;-72
2022/06/12 04:46:31;;;;;;;9.48;2.50;;;18.50;94.80;;;;;;5073469;28;45159;-72
2022/06/12 04:49:00;;;;;;;8.88;2.40;;;18.60;95.40;;;;;;5073348;28;46156;-72
2022/06/12 04:51:29;;;;;;;15.65;2.90;;;18.50;95.20;;;;;;5070061;28;45577;-72
2022/06/12 04:53:56;;;;;;;13.52;2.78;;;18.60;95.00;;;;;;5076721;28;45371;-72
2022/06/12 04:56:26;;;;;;;11.07;2.53;;;18.60;95.40;;;;;;5075532;28;45234;-72
2022/06/12 04:58:53;;;;;;;10.07;2.85;;;18.70;95.10;;;;;;5080534;28;45476;-72
2022/06/12 05:01:20;;;;;;;13.25;2.70;;;18.80;95.00;;;;;;5070332;28;45231;-72
2022/06/12 05:03:47;;;;;;;13.77;3.13;;;18.80;95.20;;;;;;5074931;28;45612;-72
2022/06/12 05:06:16;;;;;;;9.35;2.53;;;18.90;95.20;;;;;;5077142;28;45493;-72
2022/06/12 05:08:46;;;;;;;7.25;2.30;;;18.90;95.40;;;;;;5073340;28;46572;-72
2022/06/12 05:11:13;;;;;;;6.85;2.15;;;18.90;95.50;;;;;;5069607;28;45422;-72
2022/06/12 05:13:40;;;;;;;8.23;2.60;;;18.90;96.80;;;;;;5070055;28;45393;-72
2022/06/12 05:16:08;;;;;;;11.82;2.70;;;18.90;96.30;;;;;;5074873;28;45342;-72
2022/06/12 05:18:35;;;;;;;12.70;2.75;;;18.90;96.30;;;;;;5077634;28;46250;-72
2022/06/12 05:21:02;;;;;;;8.32;2.67;;;19.00;96.50;;;;;;5073355;28;45248;-72
2022/06/12 05:23:29;;;;;;;12.32;3.00;;;19.00;96.50;;;;;;5074378;28;45445;-72
2022/06/12 05:25:58;;;;;;;12.65;2.80;;;19.00;96.50;;;;;;5076540;28;45650;-72
2022/06/12 05:28:24;;;;;;;6.93;2.53;;;19.00;96.70;;;;;;5078426;28;46398;-72
2022/06/12 05:30:51;;;;;;;13.77;3.30;;;19.00;96.80;;;;;;5068610;28;45157;-72
2022/06/12 05:33:18;;;;;;;8.73;2.67;;;19.00;95.80;;;;;;5073179;28;45389;-72
2022/06/12 05:35:45;;;;;;;11.98;2.97;;;19.00;97.00;;;;;;5073200;28;45423;-72
2022/06/12 05:38:12;;;;;;;16.10;2.75;;;19.00;96.60;;;;;;5086070;27;45481;-72
2022/06/12 05:40:41;;;;;;;14.82;3.30;;;19.00;96.60;;;;;;5086802;27;45551;-72
2022/06/12 05:43:10;;;;;;;9.70;3.10;;;19.00;96.00;;;;;;5098158;27;45475;-72
2022/06/12 05:45:37;;;;;;;10.07;2.58;;;19.00;96.50;;;;;;5076431;28;45231;-72
2022/06/12 05:48:08;;;;;;;12.20;2.92;;;19.00;96.10;;;;;;5072197;28;46150;-72
2022/06/12 05:50:37;;;;;;;10.98;2.92;;;19.00;96.00;;;;;;5080511;28;45402;-72
2022/06/12 05:53:05;;;;;;;14.23;2.83;;;18.90;96.10;;;;;;5069992;28;45234;-72
2022/06/12 05:55:32;;;;;;;17.42;3.00;;;19.00;96.20;;;;;;5075200;27;45380;-72
2022/06/12 05:57:59;;;;;;;11.85;2.80;;;18.80;95.50;;;;;;5095028;27;45395;-72
2022/06/12 06:00:30;;;;;;;8.70;2.60;;;18.70;93.70;;;;;;5094635;27;45700;-72
2022/06/12 06:02:57;;;;;;;10.65;2.50;;;18.70;95.10;;;;;;5091061;27;45259;-72
2022/06/12 06:05:24;;;;;;;11.90;2.25;;;18.70;93.90;;;;;;5075870;28;46631;-72
2022/06/12 06:07:51;;;;;;;9.23;2.50;;;18.70;94.70;;;;;;5072221;28;46005;-72
2022/06/12 06:10:23;;;;;;;12.48;2.65;;;18.70;94.30;;;;;;5068884;28;45335;-72
2022/06/12 06:12:52;;;;;;;10.73;2.55;;;18.80;94.40;;;;;;5069562;28;45160;-72
2022/06/12 06:15:19;;;;;;;12.13;2.55;;;18.80;93.70;;;;;;5069596;28;45413;-72
2022/06/12 06:17:47;;;;;;;10.35;2.28;;;19.10;93.90;;;;;;5076975;28;46703;-72
2022/06/12 06:20:22;;;;;;;10.38;2.38;;;18.70;93.20;;;;;;5077121;28;45465;-72
2022/06/12 06:22:48;;;;;;;7.50;1.83;;;18.70;93.50;;;;;;5080553;28;45578;-72
2022/06/12 06:25:15;;;;;;;5.03;1.92;;;18.70;93.60;;;;;;5075604;28;45278;-72
2022/06/12 06:27:42;;;;;;;11.48;2.10;;;18.80;93.30;;;;;;5076732;28;46753;-72
2022/06/12 06:30:10;;;;;;;8.80;2.10;;;18.70;92.20;;;;;;5076918;28;45165;-72
2022/06/12 06:32:37;;;;;;;10.00;1.70;;;18.60;92.10;;;;;;5076931;28;45867;-72
2022/06/12 06:35:07;;;;;;;13.77;2.20;;;18.60;92.70;;;;;;5074577;28;45289;-72
2022/06/12 06:37:35;;;;;;;9.65;2.20;;;18.70;92.50;;;;;;5078037;28;46421;-72
2022/06/12 06:40:03;;;;;;;8.10;2.22;;;18.80;93.20;;;;;;5073676;28;45340;-72
2022/06/12 06:42:29;;;;;;;12.75;2.17;;;18.80;93.20;;;;;;5091599;27;45425;-72
2022/06/12 06:47:41;;;;;;;12.07;2.80;;;18.80;91.90;;;;;;5078623;28;45310;-72
2022/06/12 06:50:13;;;;;;;6.63;2.00;;;18.70;92.00;;;;;;5082971;28;45287;-72
2022/06/12 06:52:40;;;;;;;7.22;2.05;;;18.70;92.50;;;;;;5073955;28;45196;-72
2022/06/12 06:55:08;;;;;;;5.90;1.67;;;18.80;92.30;;;;;;5066068;28;45841;-72
2022/06/12 06:57:37;;;;;;;9.35;1.80;;;18.90;91.90;;;;;;5087861;27;46185;-72
2022/06/12 07:00:06;;;;;;;7.97;1.98;;;18.90;92.00;;;;;;5084968;27;45586;-72
2022/06/12 07:02:33;;;;;;;12.68;3.38;;;18.70;90.80;;;;;;5079227;27;46029;-72
2022/06/12 07:05:00;;;;;;;4.15;1.67;;;18.60;91.00;;;;;;5073696;28;46319;-72
2022/06/12 07:07:28;;;;;;;8.30;1.80;;;18.50;89.60;;;;;;5078222;27;45237;-72
2022/06/12 07:09:55;;;;;;;7.85;1.58;;;18.40;90.90;;;;;;5092795;27;45375;-72
2022/06/12 07:12:24;;;;;;;3.55;1.27;;;18.40;90.80;;;;;;5083109;27;45345;-79
2022/06/12 07:14:51;;;;;;;9.45;2.03;;;18.20;88.50;;;;;;5079618;28;45373;-72
2022/06/12 07:17:18;;;;;;;6.43;1.30;;;17.50;90.60;;;;;;5076646;28;47963;-72
2022/06/12 07:19:45;;;;;;;8.73;1.42;;;17.40;90.40;;;;;;5074810;28;45500;-72
2022/06/12 07:22:12;;;;;;;9.45;1.70;;;17.40;91.70;;;;;;5077963;28;45287;-72
2022/06/12 07:24:41;;;;;;;7.07;1.38;;;17.30;88.70;;;;;;5081646;28;45385;-72
2022/06/12 07:27:08;;;;;;;4.97;1.45;;;17.30;90.40;;;;;;5080276;28;47073;-72
2022/06/12 07:29:35;;;;;;;9.70;1.75;;;17.40;90.00;;;;;;5080962;28;45361;-72
2022/06/12 07:32:02;;;;;;;6.90;1.85;;;17.40;89.60;;;;;;5083776;28;45374;-72
2022/06/12 07:34:29;;;;;;;8.05;1.92;;;17.50;87.60;;;;;;5089353;28;45256;-73
2022/06/12 07:36:56;;;;;;;7.45;1.35;;;17.40;88.40;;;;;;5086652;28;46474;-73
2022/06/12 07:39:26;;;;;;;9.68;1.52;;;17.50;87.10;;;;;;5081626;27;45231;-74
2022/06/12 07:41:55;;;;;;;10.10;1.50;;;17.40;89.40;;;;;;5096601;27;45294;-74
2022/06/12 07:44:24;;;;;;;7.97;1.75;;;17.70;90.00;;;;;;5089349;27;45239;-74
2022/06/12 07:46:54;;;;;;;6.65;1.70;;;17.60;89.80;;;;;;5085186;27;46282;-74
2022/06/12 07:49:22;;;;;;;3.80;1.10;;;17.60;92.50;;;;;;5084711;27;45289;-73
2022/06/12 07:51:49;;;;;;;3.85;1.30;;;17.70;87.40;;;;;;5071833;28;45362;-73
2022/06/12 07:54:16;;;;;;;6.65;1.45;;;17.70;85.70;;;;;;5094995;27;45517;-73
2022/06/12 07:56:44;;;;;;;7.93;2.03;;;17.70;86.90;;;;;;5087558;27;46185;-72
2022/06/12 07:59:14;;;;;;;8.25;1.27;;;17.70;85.00;;;;;;5071419;28;45449;-73
2022/06/12 08:01:40;;;;;;;10.27;1.55;;;17.80;87.50;;;;;;5077969;28;45295;-72
2022/06/12 08:04:08;;;;;;;8.52;1.63;;;18.00;87.50;;;;;;5084896;28;45401;-72
2022/06/12 08:06:36;;;;;;;7.03;1.50;;;18.10;87.20;;;;;;5078708;28;47249;-73
2022/06/12 08:09:05;;;;;;;5.55;1.48;;;18.10;89.50;;;;;;5085236;27;45276;-73
2022/06/12 08:11:34;;;;;;;6.93;1.10;;;18.10;84.60;;;;;;5083503;27;45247;-73
2022/06/12 08:14:01;;;;;;;8.55;1.30;;;18.20;81.90;;;;;;5085512;28;45179;-73
2022/06/12 08:16:29;;;;;;;9.15;1.60;;;18.40;86.10;;;;;;5085904;28;48057;-73
2022/06/12 08:18:56;;;;;;;7.25;1.48;;;18.40;83.90;;;;;;5081326;28;45563;-73
2022/06/12 08:21:24;;;;;;;7.70;1.52;;;18.40;83.80;;;;;;5085623;28;45345;-73
2022/06/12 08:23:53;;;;;;;5.70;1.33;;;18.50;84.80;;;;;;5077965;28;45180;-72
2022/06/12 08:26:24;;;;;;;7.32;1.80;;;18.60;89.60;;;;;;5083421;28;47929;-72
2022/06/12 08:28:53;;;;;;;9.20;1.65;;;18.50;83.10;;;;;;5084033;28;45237;-72
2022/06/12 08:31:23;;;;;;;7.28;1.58;;;18.60;82.40;;;;;;5085539;27;45227;-73
2022/06/12 08:33:54;;;;;;;7.18;1.40;;;18.30;83.10;;;;;;5081681;28;45391;-73
2022/06/12 08:36:22;;;;;;;8.48;1.42;;;17.60;88.50;;;;;;5086044;27;45994;-73
2022/06/12 08:38:49;;;;;;;6.40;1.40;;;17.40;86.20;;;;;;5089844;27;45455;-73
2022/06/12 08:41:21;;;;;;;2.85;1.02;;;17.40;90.30;;;;;;5086468;27;45433;-73
2022/06/12 08:43:55;;;;;;;7.18;1.35;;;17.60;88.90;;;;;;5096141;27;45326;-73
2022/06/12 08:46:31;;;;;;;6.32;1.35;;;17.70;84.80;;;;;;5093642;27;46485;-72
2022/06/12 08:49:05;;;;;;;8.05;1.42;;;18.00;88.70;;;;;;5099077;27;45308;-73
2022/06/12 08:51:41;;;;;;;5.78;1.33;;;18.30;82.80;;;;;;5095120;27;45343;-78
2022/06/12 08:54:13;;;;;;;6.50;1.63;;;18.50;85.30;;;;;;5086443;27;45545;-73
2022/06/12 08:56:46;;;;;;;3.97;1.35;;;18.50;83.80;;;;;;5085653;27;47629;-74
2022/06/12 08:59:18;;;;;;;9.40;1.52;;;18.70;82.70;;;;;;5088500;27;45220;-74
2022/06/12 09:01:45;;;;;;;7.03;1.80;;;18.80;83.10;;;;;;5088354;27;46969;-74
2022/06/12 09:04:16;;;;;;;8.07;1.52;;;18.90;81.90;;;;;;5091079;27;45390;-74
2022/06/12 09:06:48;;;;;;;5.43;1.40;;;18.70;80.60;;;;;;5087372;27;47976;-73
2022/06/12 09:09:23;;;;;;;7.97;1.83;;;19.20;82.30;;;;;;5081508;27;45128;-73
2022/06/12 09:11:53;;;;;;;6.18;1.50;;;19.00;82.40;;;;;;5091740;27;45302;-73
2022/06/12 09:14:35;;;;;;;8.90;1.50;;;19.10;83.80;;;;;;5100336;27;46041;-73
2022/06/12 09:17:13;;;;;;;8.93;1.75;;;19.10;82.40;;;;;;5079422;27;46220;-73
2022/06/12 09:19:51;;;;;;;10.30;1.77;;;19.10;83.10;;;;;;5082832;27;46335;-73
2022/06/12 09:22:26;;;;;;;9.35;1.52;;;19.00;83.60;;;;;;5076265;27;45476;-74
2022/06/12 09:24:59;;;;;;;11.07;1.98;;;19.10;83.80;;;;;;5082310;27;45360;-74
2022/06/12 09:27:34;;;;;;;11.02;1.98;;;19.20;82.60;;;;;;5076404;27;46481;-74
2022/06/12 09:30:05;;;;;;;7.05;1.55;;;19.20;82.60;;;;;;5075299;27;45352;-74
2022/06/12 09:32:44;;;;;;;5.43;1.48;;;19.10;82.50;;;;;;5074874;27;45541;-74
2022/06/12 09:35:23;;;;;;;9.40;1.50;;;19.10;78.50;;;;;;5080840;27;45474;-74
2022/06/12 09:38:19;;;;;;;5.68;1.83;;;19.20;80.80;;;;;;5077910;28;46493;-74
2022/06/12 09:40:58;;;;;;;6.30;1.58;;;19.30;82.30;;;;;;5081429;27;45247;-74
2022/06/12 09:43:37;;;;;;;9.80;1.92;;;19.30;81.30;;;;;;5079395;27;45392;-74
2022/06/12 09:46:09;;;;;;;9.70;1.73;;;19.40;81.20;;;;;;5082556;27;45279;-74
2022/06/12 09:48:58;;;;;;;8.40;1.70;;;19.50;81.40;;;;;;5077645;28;45600;-75
2022/06/12 09:51:41;;;;;;;7.30;1.40;;;19.50;83.30;;;;;;5074690;27;45673;-74
2022/06/12 09:54:30;;;;;;;10.07;1.48;;;19.60;81.70;;;;;;5069858;27;45322;-74
2022/06/12 09:57:04;;;;;;;10.15;2.15;;;19.30;85.40;;;;;;5069289;27;45295;-75
2022/06/12 09:59:38;;;;;;;10.05;1.83;;;19.60;85.30;;;;;;5071395;27;48108;-74
2022/06/12 10:02:13;;;;;;;10.57;1.67;;;19.70;88.40;;;;;;5071810;27;45552;-74
2022/06/12 10:04:44;;;;;;;6.70;1.48;;;19.70;83.60;;;;;;5079522;27;45250;-74
2022/06/12 10:07:18;;;;;;;8.55;1.65;;;19.80;81.50;;;;;;5079517;27;45406;-74
2022/06/12 10:09:50;;;;;;;14.55;2.10;;;20.00;82.20;;;;;;5083937;28;46220;-74
2022/06/12 10:14:57;;;;;;;11.18;1.98;;;20.00;79.40;;;;;;5212162;22;45220;-76
2022/06/12 10:17:30;;;;;;;11.68;1.73;;;20.10;83.80;;;;;;5057876;28;46616;-77
2022/06/12 10:20:04;;;;;;;8.70;1.77;;;20.10;78.50;;;;;;5053929;28;47925;-76
2022/06/12 10:22:35;;;;;;;11.27;1.40;;;20.00;82.10;;;;;;5061129;28;45335;-77
2022/06/12 10:25:05;;;;;;;5.63;1.67;;;20.00;82.80;;;;;;5062626;28;45532;-77
2022/06/12 10:27:42;;;;;;;8.77;2.03;;;20.10;79.90;;;;;;5062173;28;45295;-76
2022/06/12 10:30:25;;;;;;;8.43;1.70;;;20.20;79.20;;;;;;5056670;28;45384;-75
2022/06/12 10:32:54;;;;;;;8.32;1.85;;;20.10;78.40;;;;;;5055380;28;46607;-76
2022/06/12 10:35:23;;;;;;;10.57;2.03;;;20.10;78.20;;;;;;5057857;28;46191;-76
2022/06/12 10:37:52;;;;;;;9.13;2.05;;;20.10;83.50;;;;;;5061631;28;45519;-76
2022/06/12 10:40:21;;;;;;;10.15;2.25;;;20.50;80.90;;;;;;5061489;28;47427;-76
2022/06/12 10:42:52;;;;;;;9.40;1.67;;;20.40;78.10;;;;;;5057833;28;45410;-76
2022/06/12 10:45:23;;;;;;;6.30;1.63;;;20.20;81.40;;;;;;5056589;28;45300;-76
2022/06/12 10:47:52;;;;;;;13.52;2.30;;;20.30;81.40;;;;;;5054463;28;45275;-76
2022/06/12 10:50:26;;;;;;;5.60;1.55;;;20.30;79.70;;;;;;5059808;28;45237;-76
2022/06/12 10:52:58;;;;;;;9.43;2.10;;;20.20;82.10;;;;;;5062207;28;45449;-76
2022/06/12 10:55:47;;;;;;;8.40;2.00;;;20.40;82.90;;;;;;5064245;28;45425;-76
2022/06/12 10:58:35;;;;;;;12.55;2.15;;;20.50;78.00;;;;;;5060153;28;45416;-75
2022/06/12 11:01:12;;;;;;;8.82;1.90;;;20.60;78.80;;;;;;5055730;28;47490;-76
2022/06/12 11:03:53;;;;;;;11.68;1.80;;;20.80;79.60;;;;;;5061497;28;46477;-76
2022/06/12 11:06:22;;;;;;;7.95;1.88;;;20.90;76.40;;;;;;5063699;28;45887;-75
2022/06/12 11:09:08;;;;;;;9.88;1.88;;;20.80;75.30;;;;;;5064819;28;45438;-76
2022/06/12 11:11:51;;;;;;;12.55;1.77;;;20.90;77.70;;;;;;5059855;28;45294;-76
2022/06/12 11:14:29;;;;;;;9.55;1.83;;;20.90;78.40;;;;;;5061266;28;45190;-76
2022/06/12 11:17:06;;;;;;;11.30;2.03;;;20.90;73.60;;;;;;5058719;28;45306;-76
2022/06/12 11:19:46;;;;;;;8.38;1.88;;;20.80;70.70;;;;;;5059874;28;45436;-76
2022/06/12 11:22:32;;;;;;;8.18;1.40;;;21.10;74.40;;;;;;5059217;28;45360;-76
2022/06/12 11:25:11;;;;;;;11.10;2.13;;;20.90;76.80;;;;;;5066834;28;45772;-76
2022/06/12 11:27:55;;;;;;;11.10;2.03;;;20.90;73.80;;;;;;5066049;28;45309;-76
2022/06/12 11:30:40;;;;;;;9.80;2.17;;;20.80;78.00;;;;;;5052541;28;45395;-75
2022/06/12 11:33:36;;;;;;;8.38;1.60;;;21.10;74.30;;;;;;5057165;28;46495;-75
2022/06/12 11:36:10;;;;;;;8.80;1.63;;;21.10;71.70;;;;;;5061619;28;45225;-76
2022/06/12 11:39:03;;;;;;;8.68;1.60;;;21.10;70.80;;;;;;5060306;28;45556;-76
2022/06/12 11:41:44;;;;;;;10.07;2.17;;;21.10;70.70;;;;;;5061503;28;46289;-75
2022/06/12 11:44:24;;;;;;;13.60;2.15;;;21.40;74.10;;;;;;5059263;28;47438;-76
2022/06/12 11:46:59;;;;;;;9.73;1.70;;;21.50;68.90;;;;;;5063784;28;45138;-75
2022/06/12 11:49:37;;;;;;;9.60;1.95;;;21.30;73.00;;;;;;5062252;28;45593;-76
2022/06/12 11:52:19;;;;;;;8.70;2.08;;;21.40;73.20;;;;;;5059953;28;45415;-76
2022/06/12 11:54:59;;;;;;;8.52;1.80;;;21.50;76.60;;;;;;5060311;28;47372;-76
2022/06/12 11:58:26;;;;;;;11.48;2.17;;;21.40;77.70;;;;;;5060270;28;45177;-77
2022/06/12 12:01:07;;;;;;;10.23;2.17;;;21.20;77.00;;;;;;5023608;28;45078;-84
2022/06/12 12:06:58;;;;;;;7.38;1.55;;;21.30;70.40;;;;;;5061882;28;45656;-76
2022/06/12 12:09:36;;;;;;;10.32;1.60;;;21.40;70.00;;;;;;5067160;28;45340;-76
2022/06/12 12:12:10;;;;;;;14.38;2.40;;;21.30;69.70;;;;;;5061475;28;45339;-76
2022/06/12 12:14:40;;;;;;;8.30;1.73;;;21.30;71.20;;;;;;5058064;28;45475;-76
2022/06/12 12:17:14;;;;;;;4.65;1.35;;;21.40;68.50;;;;;;5060229;28;46078;-76
2022/06/12 12:19:45;;;;;;;7.75;1.58;;;21.50;70.30;;;;;;5058174;28;45667;-76
2022/06/12 12:22:19;;;;;;;8.80;2.33;;;21.50;66.60;;;;;;5060458;28;45183;-76
2022/06/12 12:24:50;;;;;;;10.88;1.52;;;21.50;67.80;;;;;;5064101;28;45399;-76
2022/06/12 12:27:25;;;;;;;10.82;2.10;;;21.60;68.40;;;;;;5063492;28;46272;-76
2022/06/12 12:29:54;;;;;;;6.30;1.33;;;21.60;65.90;;;;;;5056782;28;45284;-76
2022/06/12 12:32:22;;;;;;;8.93;2.15;;;21.80;67.00;;;;;;5063459;28;45098;-76
2022/06/12 12:34:53;;;;;;;6.85;1.55;;;21.90;69.20;;;;;;5058922;28;45437;-76
2022/06/12 12:43:03;;;;;;;6.80;1.55;;;21.70;72.80;;;;;;5046948;28;45409;-76
2022/06/12 12:45:33;;;;;;;5.85;1.77;;;22.10;68.00;;;;;;5062435;28;45572;-76
2022/06/12 12:48:07;;;;;;;5.88;1.52;;;22.20;67.50;;;;;;5077850;27;45547;-81
2022/06/12 12:50:44;;;;;;;4.75;1.70;;;23.30;68.20;;;;;;5089809;22;45045;-76
2022/06/12 12:53:21;;;;;;;7.05;1.60;;;22.60;66.00;;;;;;5065431;28;45371;-76
2022/06/12 12:55:59;;;;;;;9.10;1.83;;;22.80;67.50;;;;;;5066369;28;45331;-77
2022/06/12 12:58:26;;;;;;;11.98;1.83;;;22.20;67.70;;;;;;5064014;28;48802;-77
2022/06/12 13:01:04;;;;;;;8.10;1.70;;;22.00;68.80;;;;;;5063379;28;45420;-77
2022/06/12 13:03:39;;;;;;;7.50;1.73;;;21.40;67.60;;;;;;5066639;28;45439;-77
2022/06/12 13:06:27;;;;;;;11.85;1.98;;;21.80;65.60;;;;;;5063655;28;45347;-76
2022/06/12 13:09:18;;;;;;;6.45;1.60;;;22.10;63.10;;;;;;5064269;28;47078;-76
2022/06/12 13:11:59;;;;;;;6.90;1.70;;;22.60;65.90;;;;;;5065826;28;45506;-76
2022/06/12 13:14:48;;;;;;;7.35;1.95;;;22.60;63.60;;;;;;5065064;28;45387;-76
2022/06/12 13:17:28;;;;;;;7.65;1.58;;;22.50;62.60;;;;;;5057382;28;45483;-77
2022/06/12 13:20:32;;;;;;;12.30;2.00;;;22.50;64.70;;;;;;5062647;28;47041;-76
2022/06/12 13:23:11;;;;;;;5.35;1.63;;;22.40;64.50;;;;;;5066291;28;45209;-76
2022/06/12 13:25:41;;;;;;;6.40;1.50;;;22.40;64.60;;;;;;5061037;28;45352;-76
2022/06/12 13:28:20;;;;;;;7.53;1.65;;;22.40;57.00;;;;;;5063561;28;46665;-76
2022/06/12 13:30:47;;;;;;;7.93;1.67;;;22.60;58.30;;;;;;5064355;28;46190;-76